SÍGUENOS

APP INUMET

Disponible en Google Play

Productos aeronáuticos

  • SIGMET
  • METAR / SPECI
  • TAF
  • AIREP
  • Aviso de aeródromo
  • Pronárea
  • Carta superficie
Fecha : 23/07/2017
FTUY 03 SUMU 23 11 30
SUMU TAF 231130Z 2312/2412 35010KT CAVOK TX17/2318Z TN11/2410Z TEMPO 2400/2410 14010KT RA BKN015 OVC070=
SULS TAF 231130Z 2312/2412 35010KT CAVOK TX17/2318Z TN11/2410Z TEMPO 2402/2412 14010KT RA BKN015 OVC070=
SUAA TAF 231130Z 2312/2412 35010KT CAVOK TX17/2318Z TN11/2410Z TEMPO 2400/2410 14010KT RA BKN015 OVC070=
SUCA TAF 231130Z 2312/2412 35010KT CAVOK TX17/2318Z TN11/2410Z TEMPO 2400/2410 14010KT RA BKN015 OVC070=
SUDU TAF 231130Z 2312/2412 05010KT CAVOK TX23/2318Z TN11/2410Z=
SUSO TAF 231130Z 2312/2412 05010KT CAVOK TX23/2318Z TN11/2410Z=
SURV TAF 231130Z 2312/2412 05010KT CAVOK TX23/2318Z TN11/2410Z=

Predictor : Andrea Gimenez


Mensajes TAF vigentes - Internacionales


Argentina
TAF SAEZ 231100Z 2312/2412 34005KT CAVOK TX18/2319Z TN13/2410Z BECMG 2313/2315 05010KT BECMG 2317/2319 BKN035 OVC090 BECMG 2323/2401 16010KT 7000 RA BKN010 OVC040 TEMPO 2406/2412 3000 TSRA FEW035CB
TAF SABE 231100Z 2312/2412 34005KT CAVOK TX17/2319Z TN13/2410Z BECMG 2313/2315 05010KT BECMG 2317/2319 11010KT 9999 BKN035 OVC090 BECMG 2323/2401 16010KT 7000 RA BKN010 OVC040 TEMPO 2406/2412 3000 TSRA FEW035CB
TAF SACO 231100Z 2312/2412 25005KT CAVOK TX26/2318Z TN05/2410Z BECMG 2314/2317 05010KT CAVOK BECMG 2319/2323 18010G20KT 9999 SCT035
TAF SAME 231100Z 2312/2412 18005KT CAVOK TX17/2320Z TN03/2410Z
TAF SAAR 231100Z 2312/2412 09005KT CAVOK TX24/2319Z TN15/2410Z BECMG 2319/2322 16005KT 9999 OVC030
Bolivia
TAF SLLP 231000Z 2312/2412 25006KT 9999 NSC TX17/2320Z TNM04/2410Z BECMG 2323/2403 07005KT
Brasil
TAF SBPA 231000Z 2312/2412 10006KT CAVOK TX25/2318Z TN10/2409Z PROB30 2407/2411 3000 BR NSC RMK PEB
TAF SBFL 231000Z 2312/2412 36007KT 9999 SCT030 TX20/2318Z TN15/2409Z BECMG 2312/2313 CAVOK RMK PEB
TAF SBFI 231000Z 2312/2412 08007KT CAVOK TX28/2318Z TN14/2409Z RMK PE B
TAF SBBR 231000Z 2312/2412 11009KT CAVOK TX27/2318Z TN12/2408Z BECMG 2315/2316 9999 SCT040 BECMG 2318/2319 16008KT CAVOK BECMG 2323/2324 14004KT TEMPO 2404/2411 00000KT BECMG 2405/2406 36004KT RMK PEJ
TAF SBSP 230900Z 2312/2412 13007KT 8000 BKN013 TX23/2318Z TN13/2407Z BECMG 2313/2315 06005KT CAVOK BECMG 2317/2319 16008KT FEW025 BECMG 2319/2321 6000 FEW009 BKN011 BECMG 2321/2323 11005KT 8000 FEW010 BECMG 2403/2405 6000 SCT010 PROB30 2408/2411 3000 BR BKN006 RMK PHG
TAF SBGR 230900Z 2312/2418 08003KT 8000 BKN013 TN13/2409Z TX24/2417Z BECMG 2312/2314 09005KT FEW015 BECMG 2314/2316 FEW025 BECMG 2320/2322 14005KT 6000 BKN011 BECMG 2323/2401 08005KT 9000 NSC PROB40 2408/2411 0400 FG OVC005 BECMG 2412/2414 09005KT BECMG 2415/2417 35005KT RMK PHG
TAF SBRJ 230900Z 2312/2324 02005KT 9999 SCT020 TX25/2316Z TN19/2324Z BECMG 2315/2317 16010KT FEW025 RMK PHD
Colombia
TAF SKBO 231100Z 2312/2412 VRB02KT 9999 SCT017 SCT080 BECMG 2313/2315 14010KT BECMG 2401/2403 VRB02KT PROB30 TEMPO 2319/2323 7000 VCSH TX20/2318Z TN10/2411Z
Chile
TAF COR SCEL 231030Z 2312/2412 36004KT 4000 BR FEW040 BKN140 TX11/ 2318Z TN04/2410Z TEMPO 2312/2314 VRB02KT 0800 BCFG SCT003 BKN010 BKN040 BECMG 2316/2318 8000 FEW025 SCT030 BKN080 TEMPO 2320/2323 18004KT 7000 -SHRA BKN020 OVC050 BECMG 2403/2405 VRB02KT SCT040 BKN080 TEMPO 2409/2412 2500 BR FEW004 SCT030
TAF SCCI 231024Z 2312/2412 26015KT 9999 FEW035 TN02/2409Z TX06/2317Z TEMPO 2312/2316 28007KT BECMG 2318/2320 30012KT TEMPO 2318/2323 9000 BKN040 BECMG 2400/2402 33010KT TEMPO 2409/2412 30015KT 9000 -RA BKN040
Ecuador
SEQM 230940Z 2312/2412 VRB03KT 9999 FEW040 FM231800 12010KT 9999 SCT040 FM240200 09004KT 9999 SCT020 FM240700 00000KT 9999 SCT020 TX25/2319Z TN07/2411Z
EEUU
KLGA 231152Z 2312/2412 VRB03KT P6SM SCT015 SCT030 OVC060 TEMPO 2312/2313 BKN015 FM231500 05008KT P6SM SCT040 BKN060 FM232100 11010KT P6SM BKN045 PROB30 2402/2403 4SM -SHRA BKN030 FM240300 11010KT P6SM VCSH OVC025 PROB30 2403/2406 4SM -SHRA FM240600 10010KT 5SM -SHRA OVC020 FM240800 09011KT 5SM -SHRA OVC015
KJFK 231152Z 2312/2418 VRB03KT P6SM VCSH SCT030 OVC060 FM231500 07008KT P6SM SCT045 OVC060 FM231700 11008KT P6SM SCT045 BKN060 FM240200 12010KT P6SM VCSH BKN025 PROB30 2402/2405 4SM -SHRA FM240500 11012KT 5SM -SHRA SCT010 OVC020 FM240800 09012G19KT 5SM -SHRA SCT006 OVC015 FM241200 09013G21KT 4SM -SHRA OVC008 FM241500 06012G19KT P6SM VCSH OVC020 PROB30 2415/2418 4SM -SHRA OVC015
KDCA 231132Z 2312/2412 00000KT P6SM FEW006 BKN250 FM231400 19005KT P6SM BKN060 FM231600 26006KT P6SM BKN050 FM231800 22007KT P6SM VCTS BKN040CB FM231900 19006KT P6SM -SHRA VCTS BKN040CB FM240100 22004KT P6SM BKN050
KIAD 231132Z 2312/2418 00000KT 5SM BR SCT140 BKN250 FM231230 28005KT P6SM BKN250 FM231700 27005KT P6SM VCTS BKN050CB FM231900 23005KT P6SM -SHRA VCTS BKN040CB FM240000 VRB03KT P6SM BKN050 FM241200 28004KT P6SM SCT250
KMIA 231120Z 2312/2412 14005KT P6SM SCT025 SCT070 BKN250 FM231500 14008KT P6SM VCTS SCT025CB BKN050 BKN250 FM231800 11009KT P6SM FEW030 BKN250 FM240000 14003KT P6SM FEW030 SCT250
España
TAF LEBL 231100Z 2312/2412 10010KT 9999 FEW020 BKN030 TX28/2312Z TN24/2405Z TEMPO 2314/2318 16009KT PROB40 TEMPO 2316/2320 FEW020CB BKN030 BECMG 2318/2321 32005KT TEMPO 2400/2406 BKN012
TAF LEMD 231100Z 2312/2418 21008KT CAVOK TX35/2315Z TN18/2406Z TEMPO 2312/2319 23008G18KT
Francia
TAF LFPO 231100Z 2312/2418 22013KT 9999 SCT030 BKN060 BECMG 2316/2318 BKN030 TEMPO 2319/2401 -RA BKN012 BECMG 2401/2403 33007KT PROB30 TEMPO 2403/2407 BKN008 TEMPO 2410/2418 30015G25KT -SHRA BKN020 SCT030TCU
Inglaterra
TAF EGLL 231052Z 2312/2418 26010KT 9999 SCT020 TEMPO 2312/2320 7000 SHRA PROB30 TEMPO 2313/2319 4000 +SHRA BECMG 2400/2403 -RA BKN012 PROB30 TEMPO 2403/2406 7000 RA BKN008 TEMPO 2412/2418 BKN020
Panamá
TAF MPTO 231000Z 2312/2418 28006KT 9999 SCT018 SCT090 TEMPO 2314/2318 04006KT PROB30 TEMPO 2318/2322 19005KT 6000 -TSRA SCT015CB BKN090
Paraguay
TAF SGAS 231100Z 2312/2412 06009KT CAVOK TX31/2319Z TN19/2410Z BECMG 2314/2317 05016KT CAVOK
Venezuela
TAF SVMI 231000Z 2312/2412 07009KT 9999 SCT016 TX33/19Z TN24/09Z BECMG 2312/2316 08010KT

* Datos extraidos del Text DataServer de la NOAA (NOAA TEXT DATA SERVER)

Instituto Uruguayo de Meteorología

Dr. Javier Barrios Amorín 1488 - CP 11200
Mesa Central (598) 1895

Montevideo - Uruguay